Terminal Aerodrome Forecast
Issued by NWS

Home | Current Version | Previous Version | Text Only | Print | Product List | Glossary On
Versions: 1 2 3 4 5 6 7 8 9 10 11 12
000
FTUS41 KBTV 272300
TAFRUT
TAF
KRUT 272328Z 2800/2824 25007KT P6SM BKN045 BKN080
     FM280600 VRB03KT P6SM SCT050 BKN100
     FM281400 32009KT P6SM SCT050
     FM281700 32010G18KT P6SM SCT050
      AMD LTD TO CLD VIS AND WIND=

USA.gov is the U.S. government's official web portal to all federal, state and local government web resources and services.